Time;durP1;ratioP1;P1;durP2;ratioP2;P2;SDS_P1;SDS_P2;PMS_P1;PMS_P2;Temp;Humidity;BMP_temperature;BMP_pressure;BME280_temperature;BME280_humidity;BME280_pressure;Samples;Min_cycle;Max_cycle;Signal;HPM_P1;HPM_P2
2022/05/18 00:00:49;;;;;;;2.67;1.20;;;17.60;99.90;;;;;;5052970;28;20040;-68
2022/05/18 00:03:18;;;;;;;3.55;1.65;;;17.60;99.90;;;;;;5056185;28;20055;-68
2022/05/18 00:05:44;;;;;;;3.00;1.70;;;17.50;99.90;;;;;;5051757;28;20044;-68
2022/05/18 00:08:10;;;;;;;3.85;1.45;;;17.50;99.90;;;;;;5055001;28;20041;-68
2022/05/18 00:10:37;;;;;;;2.45;1.35;;;17.50;99.90;;;;;;5053308;28;20040;-68
2022/05/18 00:13:03;;;;;;;3.05;1.25;;;17.50;99.90;;;;;;5062327;28;20093;-68
2022/05/18 00:15:30;;;;;;;2.85;1.55;;;17.40;99.90;;;;;;5074962;28;20483;-68
2022/05/18 00:17:55;;;;;;;2.47;1.52;;;17.40;99.90;;;;;;5054451;28;20443;-68
2022/05/18 00:20:22;;;;;;;3.13;1.63;;;17.40;99.90;;;;;;5074234;28;20115;-68
2022/05/18 00:22:56;;;;;;;6.20;1.33;;;17.40;99.90;;;;;;5073574;28;20493;-68
2022/05/18 00:25:26;;;;;;;4.43;1.35;;;17.40;99.90;;;;;;5071364;28;20618;-68
2022/05/18 00:27:51;;;;;;;3.90;1.50;;;17.30;99.90;;;;;;5052620;28;20086;-68
2022/05/18 00:30:19;;;;;;;4.38;2.08;;;17.30;99.90;;;;;;5044595;28;20458;-68
2022/05/18 00:32:45;;;;;;;3.75;1.83;;;17.30;99.90;;;;;;5051990;28;21766;-68
2022/05/18 00:35:13;;;;;;;3.25;1.55;;;17.30;99.90;;;;;;5055863;28;20032;-68
2022/05/18 00:37:38;;;;;;;4.18;1.42;;;17.20;99.90;;;;;;5053286;28;20044;-68
2022/05/18 00:40:05;;;;;;;2.92;1.55;;;17.20;99.90;;;;;;5056867;28;20066;-68
2022/05/18 00:42:31;;;;;;;2.33;1.48;;;17.20;99.90;;;;;;5075869;28;20044;-68
2022/05/18 00:44:57;;;;;;;2.67;1.60;;;17.20;99.90;;;;;;5046319;28;20385;-68
2022/05/18 00:47:23;;;;;;;2.00;1.30;;;17.20;99.90;;;;;;5071958;28;20094;-68
2022/05/18 00:49:54;;;;;;;3.40;1.77;;;17.10;99.90;;;;;;5035232;28;20127;-68
2022/05/18 00:52:25;;;;;;;4.15;1.75;;;17.10;99.90;;;;;;5072512;28;20628;-68
2022/05/18 00:54:52;;;;;;;3.25;1.55;;;17.10;99.90;;;;;;5054545;28;20397;-68
2022/05/18 00:57:24;;;;;;;2.80;1.70;;;17.10;99.90;;;;;;5076978;28;20046;-68
2022/05/18 00:59:57;;;;;;;2.53;1.58;;;17.10;99.90;;;;;;5078477;28;20085;-68
2022/05/18 01:02:26;;;;;;;3.92;1.63;;;17.00;99.90;;;;;;5060995;28;20051;-68
2022/05/18 01:04:56;;;;;;;2.78;1.60;;;17.00;99.90;;;;;;5075800;28;20051;-68
2022/05/18 01:07:32;;;;;;;2.75;1.67;;;17.00;99.90;;;;;;5057930;28;20032;-68
2022/05/18 01:09:59;;;;;;;2.92;1.60;;;17.00;99.90;;;;;;5057813;28;20047;-68
2022/05/18 01:12:25;;;;;;;2.60;1.60;;;17.00;99.90;;;;;;5060623;28;20527;-68
2022/05/18 01:14:53;;;;;;;3.55;1.40;;;17.00;99.90;;;;;;5075988;28;20048;-68
2022/05/18 01:17:23;;;;;;;3.17;1.65;;;16.90;99.90;;;;;;5060128;28;20409;-68
2022/05/18 01:19:54;;;;;;;4.28;1.60;;;16.90;99.90;;;;;;5047546;28;20039;-68
2022/05/18 01:22:41;;;;;;;2.95;1.58;;;16.90;99.90;;;;;;5036802;28;20276;-68
2022/05/18 01:25:27;;;;;;;3.00;1.65;;;16.90;99.90;;;;;;5079132;28;20490;-68
2022/05/18 01:27:56;;;;;;;3.05;1.80;;;16.80;99.90;;;;;;5057499;28;20040;-68
2022/05/18 01:30:22;;;;;;;3.08;1.85;;;16.80;99.90;;;;;;5056582;28;20036;-68
2022/05/18 01:32:50;;;;;;;2.42;1.33;;;16.80;99.90;;;;;;5042992;28;21128;-68
2022/05/18 01:35:22;;;;;;;4.90;1.60;;;16.70;99.90;;;;;;5060576;28;20044;-68
2022/05/18 01:37:48;;;;;;;4.80;2.05;;;16.70;99.90;;;;;;5050289;28;20517;-68
2022/05/18 01:40:28;;;;;;;2.92;1.88;;;16.70;99.90;;;;;;5056799;28;20592;-68
2022/05/18 01:43:03;;;;;;;2.63;1.50;;;16.70;99.90;;;;;;5057868;28;20062;-68
2022/05/18 01:45:29;;;;;;;2.65;1.55;;;16.70;99.90;;;;;;5056004;28;20036;-69
2022/05/18 01:47:54;;;;;;;3.88;2.03;;;16.70;99.90;;;;;;5074595;28;20428;-69
2022/05/18 01:50:27;;;;;;;2.65;1.50;;;16.70;99.90;;;;;;5053108;28;20040;-69
2022/05/18 01:52:52;;;;;;;4.22;1.92;;;16.60;99.90;;;;;;5054993;28;20040;-69
2022/05/18 01:55:19;;;;;;;2.80;1.60;;;16.60;99.90;;;;;;5053759;28;20570;-68
2022/05/18 01:57:44;;;;;;;2.22;1.25;;;16.60;99.90;;;;;;5079049;28;20048;-68
2022/05/18 02:00:11;;;;;;;3.35;2.22;;;16.60;99.90;;;;;;5056725;28;20095;-68
2022/05/18 02:02:38;;;;;;;3.63;1.63;;;16.60;99.90;;;;;;5060156;28;20678;-68
2022/05/18 02:05:03;;;;;;;3.35;1.60;;;16.50;99.90;;;;;;5057085;28;20031;-69
2022/05/18 02:07:29;;;;;;;3.25;1.90;;;16.50;99.90;;;;;;5054451;28;20094;-68
2022/05/18 02:09:55;;;;;;;2.88;1.98;;;16.50;99.90;;;;;;5056752;28;20478;-68
2022/05/18 02:12:20;;;;;;;3.03;1.58;;;16.50;99.90;;;;;;5055288;28;20124;-68
2022/05/18 02:14:46;;;;;;;4.60;1.77;;;16.50;99.90;;;;;;5052542;28;20447;-68
2022/05/18 02:17:11;;;;;;;5.38;1.75;;;16.50;99.90;;;;;;5061567;28;20519;-68
2022/05/18 02:19:38;;;;;;;2.83;1.58;;;16.40;99.90;;;;;;5055004;28;20039;-68
2022/05/18 02:22:04;;;;;;;3.53;1.85;;;16.40;99.90;;;;;;5055292;28;20062;-68
2022/05/18 02:24:30;;;;;;;3.45;1.90;;;16.40;99.90;;;;;;5043703;28;20500;-68
2022/05/18 02:26:56;;;;;;;3.47;1.63;;;16.40;99.90;;;;;;5058219;28;20043;-68
2022/05/18 02:29:22;;;;;;;4.60;2.17;;;16.30;99.90;;;;;;5056304;28;20033;-69
2022/05/18 02:31:47;;;;;;;4.32;1.45;;;16.30;99.90;;;;;;5058317;28;20036;-68
2022/05/18 02:34:13;;;;;;;3.67;2.22;;;16.30;99.90;;;;;;5079744;28;20271;-69
2022/05/18 02:36:39;;;;;;;3.20;1.65;;;16.30;99.90;;;;;;5071603;28;20089;-68
2022/05/18 02:39:04;;;;;;;4.45;1.67;;;16.20;99.90;;;;;;5073696;28;20047;-69
2022/05/18 02:41:30;;;;;;;3.63;1.77;;;16.20;99.90;;;;;;5074053;28;20071;-68
2022/05/18 02:43:58;;;;;;;2.53;1.65;;;16.10;99.90;;;;;;5061275;28;20032;-68
2022/05/18 02:46:24;;;;;;;6.00;1.55;;;16.10;99.90;;;;;;5068461;28;20036;-68
2022/05/18 02:48:51;;;;;;;3.03;1.55;;;16.10;99.90;;;;;;5056401;28;20036;-69
2022/05/18 02:51:17;;;;;;;3.15;1.85;;;16.10;99.90;;;;;;5057677;28;20532;-68
2022/05/18 02:53:43;;;;;;;3.38;1.50;;;16.00;99.90;;;;;;5056333;28;20038;-68
2022/05/18 02:56:13;;;;;;;2.67;1.60;;;16.00;99.90;;;;;;5056401;28;20096;-69
2022/05/18 02:58:42;;;;;;;6.95;1.88;;;16.10;99.90;;;;;;5052964;28;20039;-69
2022/05/18 03:01:13;;;;;;;2.65;1.40;;;16.00;99.90;;;;;;5056884;28;20134;-68
2022/05/18 03:03:40;;;;;;;3.13;1.83;;;16.00;99.90;;;;;;5075984;28;20046;-68
2022/05/18 03:06:08;;;;;;;3.22;1.77;;;15.90;99.90;;;;;;5056008;28;20040;-68
2022/05/18 03:08:35;;;;;;;2.97;1.75;;;15.90;99.90;;;;;;5072404;28;20054;-68
2022/05/18 03:11:01;;;;;;;3.53;1.40;;;15.80;99.90;;;;;;5054831;28;20036;-69
2022/05/18 03:13:27;;;;;;;2.55;1.45;;;15.80;99.90;;;;;;5060610;28;20034;-68
2022/05/18 03:15:52;;;;;;;2.63;1.52;;;15.80;99.90;;;;;;5057763;28;20056;-69
2022/05/18 03:18:18;;;;;;;5.53;2.15;;;15.80;99.90;;;;;;5057167;28;21426;-68
2022/05/18 03:23:34;;;;;;;4.00;1.75;;;15.80;99.90;;;;;;5071868;28;20835;-68
2022/05/18 03:26:04;;;;;;;4.70;1.70;;;15.80;99.90;;;;;;5042939;28;20513;-68
2022/05/18 03:28:30;;;;;;;4.47;1.75;;;15.70;99.90;;;;;;5055627;28;20102;-68
2022/05/18 03:30:56;;;;;;;3.00;1.67;;;15.70;99.90;;;;;;5059343;28;20028;-68
2022/05/18 03:33:24;;;;;;;4.13;2.08;;;15.70;99.90;;;;;;5058402;28;20136;-69
2022/05/18 03:35:51;;;;;;;3.58;1.88;;;15.70;99.90;;;;;;5073277;28;20751;-68
2022/05/18 03:38:18;;;;;;;2.42;1.50;;;15.70;99.90;;;;;;5077737;28;20063;-68
2022/05/18 03:40:44;;;;;;;3.88;2.05;;;15.60;99.90;;;;;;5057149;28;20036;-68
2022/05/18 03:43:09;;;;;;;2.53;1.42;;;15.60;99.90;;;;;;5057325;28;20040;-68
2022/05/18 03:45:37;;;;;;;3.63;2.00;;;15.60;99.90;;;;;;5074456;28;20048;-69
2022/05/18 03:48:04;;;;;;;2.80;1.90;;;15.60;99.90;;;;;;5036794;28;20136;-68
2022/05/18 03:50:30;;;;;;;5.05;2.00;;;15.60;99.90;;;;;;5054837;28;20043;-69
2022/05/18 03:52:58;;;;;;;3.35;1.70;;;15.60;99.90;;;;;;5054089;28;20481;-68
2022/05/18 03:55:24;;;;;;;3.38;1.67;;;15.60;99.90;;;;;;5044984;28;20133;-68
2022/05/18 03:57:50;;;;;;;2.95;1.77;;;15.60;99.90;;;;;;5075238;28;20486;-69
2022/05/18 04:00:16;;;;;;;2.58;1.63;;;15.60;99.90;;;;;;5076396;28;20059;-68
2022/05/18 04:02:42;;;;;;;3.78;1.98;;;15.60;99.90;;;;;;5052815;28;20041;-68
2022/05/18 04:05:11;;;;;;;3.72;1.95;;;15.60;99.90;;;;;;5071765;28;20756;-69
2022/05/18 04:07:37;;;;;;;3.13;2.22;;;15.50;99.90;;;;;;5043295;28;20058;-68
2022/05/18 04:10:06;;;;;;;4.10;1.90;;;15.50;99.90;;;;;;5054418;28;20466;-68
2022/05/18 04:12:32;;;;;;;2.97;2.08;;;15.50;99.90;;;;;;5058924;28;20040;-69
2022/05/18 04:14:57;;;;;;;3.40;2.00;;;15.50;99.90;;;;;;5047649;28;20413;-68
2022/05/18 04:17:25;;;;;;;3.67;1.63;;;15.50;99.90;;;;;;5071532;28;20043;-68
2022/05/18 04:19:51;;;;;;;3.22;1.67;;;15.50;99.90;;;;;;5074952;28;20410;-68
2022/05/18 04:22:17;;;;;;;3.58;1.80;;;15.60;99.90;;;;;;5054630;28;20515;-68
2022/05/18 04:24:43;;;;;;;2.88;1.55;;;15.60;99.90;;;;;;5057024;28;20036;-68
2022/05/18 04:27:10;;;;;;;2.40;1.48;;;15.60;99.90;;;;;;5054659;28;20076;-68
2022/05/18 04:29:36;;;;;;;2.90;1.75;;;15.60;99.90;;;;;;5079987;28;20075;-68
2022/05/18 04:32:02;;;;;;;4.38;2.20;;;15.60;99.90;;;;;;5057837;28;20064;-68
2022/05/18 04:34:28;;;;;;;4.00;2.08;;;15.60;99.90;;;;;;5072495;28;20506;-68
2022/05/18 04:36:53;;;;;;;3.65;1.77;;;15.60;99.90;;;;;;5038247;28;20040;-71
2022/05/18 04:39:19;;;;;;;3.88;1.98;;;15.70;99.90;;;;;;5052670;28;20044;-68
2022/05/18 04:41:45;;;;;;;5.13;2.00;;;15.70;99.90;;;;;;5062824;28;20530;-68
2022/05/18 04:44:10;;;;;;;3.90;2.10;;;15.70;99.90;;;;;;5073983;28;20046;-68
2022/05/18 04:46:36;;;;;;;2.65;1.63;;;15.70;99.90;;;;;;5052121;28;22064;-68
2022/05/18 04:49:02;;;;;;;4.43;2.47;;;15.80;99.90;;;;;;5059567;28;20433;-68
2022/05/18 04:51:28;;;;;;;3.63;2.35;;;15.80;99.90;;;;;;5072547;28;20036;-68
2022/05/18 04:53:53;;;;;;;4.47;1.92;;;15.80;99.90;;;;;;5057218;28;20032;-68
2022/05/18 04:56:19;;;;;;;3.10;1.90;;;15.80;99.90;;;;;;5079376;28;20056;-68
2022/05/18 04:58:45;;;;;;;3.45;2.33;;;15.90;99.90;;;;;;5056293;28;20758;-68
2022/05/18 05:01:10;;;;;;;4.05;2.20;;;15.90;99.90;;;;;;5055786;28;20486;-68
2022/05/18 05:03:37;;;;;;;4.15;2.38;;;15.90;99.90;;;;;;5061538;28;20043;-69
2022/05/18 05:06:05;;;;;;;3.65;2.30;;;15.90;99.90;;;;;;5050333;28;20059;-68
2022/05/18 05:08:31;;;;;;;4.22;2.35;;;15.90;99.90;;;;;;5073601;28;20036;-68
2022/05/18 05:10:57;;;;;;;4.40;2.17;;;15.90;99.90;;;;;;5053223;28;20036;-68
2022/05/18 05:13:23;;;;;;;4.90;2.30;;;15.90;99.90;;;;;;5052121;28;20060;-68
2022/05/18 05:15:54;;;;;;;4.82;2.33;;;16.00;99.90;;;;;;5051296;28;20426;-68
2022/05/18 05:18:20;;;;;;;3.78;2.15;;;16.00;99.90;;;;;;5056022;28;20047;-68
2022/05/18 05:20:45;;;;;;;4.43;2.17;;;16.00;99.90;;;;;;5052156;28;20043;-68
2022/05/18 05:23:11;;;;;;;4.97;2.40;;;16.00;99.90;;;;;;5054932;28;20040;-68
2022/05/18 05:25:36;;;;;;;4.30;2.55;;;16.00;99.90;;;;;;5077410;28;20489;-68
2022/05/18 05:28:06;;;;;;;6.07;2.40;;;16.00;99.90;;;;;;5050205;28;20573;-68
2022/05/18 05:30:31;;;;;;;3.08;1.83;;;16.10;99.90;;;;;;5070463;28;20074;-68
2022/05/18 05:32:57;;;;;;;3.08;2.08;;;16.10;99.90;;;;;;5050264;28;20110;-68
2022/05/18 05:35:23;;;;;;;3.50;2.40;;;16.10;99.90;;;;;;5059982;28;20484;-68
2022/05/18 05:37:48;;;;;;;3.83;2.50;;;16.10;99.90;;;;;;5051819;28;20040;-68
2022/05/18 05:40:15;;;;;;;4.55;2.08;;;16.20;99.90;;;;;;5055102;28;20046;-69
2022/05/18 05:42:41;;;;;;;4.57;2.38;;;16.20;99.90;;;;;;5037976;28;20131;-69
2022/05/18 05:45:07;;;;;;;3.78;2.17;;;16.20;99.90;;;;;;5056375;28;20115;-67
2022/05/18 05:47:33;;;;;;;3.97;2.67;;;16.30;99.90;;;;;;5057825;28;20510;-68
2022/05/18 05:49:58;;;;;;;4.72;2.30;;;16.40;99.90;;;;;;5058164;28;20162;-71
2022/05/18 05:52:24;;;;;;;4.72;2.75;;;16.50;99.90;;;;;;5041406;28;20484;-72
2022/05/18 05:54:50;;;;;;;3.95;2.50;;;16.60;99.90;;;;;;5071479;28;20036;-71
2022/05/18 05:57:15;;;;;;;6.40;3.17;;;16.60;99.90;;;;;;5052827;28;20546;-71
2022/05/18 05:59:41;;;;;;;5.93;2.88;;;16.70;99.90;;;;;;5051859;28;20850;-72
2022/05/18 06:02:09;;;;;;;4.13;2.50;;;16.70;99.90;;;;;;5056146;28;20040;-68
2022/05/18 06:04:36;;;;;;;4.32;2.28;;;16.70;99.90;;;;;;5056242;28;20043;-69
2022/05/18 06:07:02;;;;;;;3.40;2.47;;;16.80;99.90;;;;;;5056857;28;20456;-68
2022/05/18 06:09:28;;;;;;;4.47;2.63;;;16.90;99.90;;;;;;5068277;28;20032;-69
2022/05/18 06:11:54;;;;;;;4.63;2.50;;;17.00;99.90;;;;;;5069821;28;20048;-68
2022/05/18 06:14:20;;;;;;;4.43;2.65;;;17.00;99.90;;;;;;5063577;28;20067;-68
2022/05/18 06:16:46;;;;;;;6.25;2.70;;;17.00;99.90;;;;;;5070344;28;20048;-68
2022/05/18 06:19:16;;;;;;;4.65;2.60;;;17.00;99.90;;;;;;5053320;28;20127;-68
2022/05/18 06:21:42;;;;;;;3.80;2.35;;;17.00;99.90;;;;;;5052752;28;20550;-68
2022/05/18 06:24:08;;;;;;;5.57;2.65;;;17.10;99.90;;;;;;5069236;28;20481;-68
2022/05/18 06:26:34;;;;;;;4.55;2.88;;;17.60;99.90;;;;;;5069448;28;20040;-68
2022/05/18 06:29:00;;;;;;;9.90;3.42;;;18.70;99.90;;;;;;5087863;28;20054;-68
2022/05/18 06:31:25;;;;;;;5.82;2.97;;;19.80;99.90;;;;;;5069646;28;20086;-68
2022/05/18 06:33:51;;;;;;;4.50;2.33;;;20.90;99.90;;;;;;5089381;28;20043;-68
2022/05/18 06:36:17;;;;;;;5.18;2.70;;;21.80;99.90;;;;;;5055566;28;20094;-68
2022/05/18 06:38:42;;;;;;;5.07;2.83;;;22.60;99.90;;;;;;5067866;28;20442;-69
2022/05/18 06:41:23;;;;;;;4.78;2.80;;;23.30;99.90;;;;;;5068843;28;20037;-69
2022/05/18 06:43:54;;;;;;;4.93;2.97;;;23.90;98.50;;;;;;5050738;28;20418;-69
2022/05/18 06:46:21;;;;;;;5.47;2.92;;;24.10;98.00;;;;;;5069143;28;20032;-69
2022/05/18 06:48:47;;;;;;;5.50;2.83;;;23.70;99.80;;;;;;5050797;28;20047;-68
2022/05/18 06:51:19;;;;;;;4.43;2.50;;;23.00;99.90;;;;;;5051268;28;20131;-68
2022/05/18 06:53:46;;;;;;;4.15;2.35;;;22.50;99.90;;;;;;5067597;28;20489;-69
2022/05/18 06:56:11;;;;;;;4.88;2.53;;;22.00;99.90;;;;;;5050743;28;20525;-69
2022/05/18 06:58:37;;;;;;;4.05;2.50;;;21.70;99.90;;;;;;5068768;28;20040;-69
2022/05/18 07:01:06;;;;;;;5.63;2.70;;;21.40;99.90;;;;;;5064773;28;20127;-69
2022/05/18 07:03:32;;;;;;;3.95;2.58;;;21.20;99.90;;;;;;5088686;28;20044;-69
2022/05/18 07:05:58;;;;;;;4.78;2.60;;;20.90;99.90;;;;;;5088723;28;20165;-69
2022/05/18 07:08:23;;;;;;;4.45;2.90;;;20.80;99.90;;;;;;5087861;28;20050;-69
2022/05/18 07:10:49;;;;;;;6.50;2.60;;;20.60;99.90;;;;;;5089329;28;20040;-69
2022/05/18 07:13:17;;;;;;;3.15;2.30;;;20.50;99.90;;;;;;5089118;28;20058;-69
2022/05/18 07:15:44;;;;;;;4.70;2.65;;;20.40;99.90;;;;;;5070670;28;20075;-68
2022/05/18 07:18:09;;;;;;;7.00;3.00;;;20.30;99.90;;;;;;5070582;28;20086;-68
2022/05/18 07:20:35;;;;;;;4.57;2.70;;;20.30;99.90;;;;;;5070740;28;20044;-69
2022/05/18 07:23:01;;;;;;;4.45;2.58;;;20.30;99.90;;;;;;5069411;28;20105;-68
2022/05/18 07:25:26;;;;;;;4.22;2.65;;;20.30;99.90;;;;;;5088932;28;20398;-68
2022/05/18 07:27:52;;;;;;;4.07;2.40;;;20.30;99.90;;;;;;5088944;28;20046;-69
2022/05/18 07:30:17;;;;;;;4.35;2.60;;;20.30;99.90;;;;;;5088685;28;20064;-68
2022/05/18 07:32:43;;;;;;;4.65;2.63;;;20.30;99.90;;;;;;5070357;28;20226;-69
2022/05/18 07:35:09;;;;;;;3.90;2.60;;;20.40;99.90;;;;;;5064289;28;20033;-69
2022/05/18 07:37:35;;;;;;;5.75;2.72;;;20.40;99.90;;;;;;5049373;28;20048;-68
2022/05/18 07:40:01;;;;;;;4.93;2.80;;;20.30;99.90;;;;;;5070307;28;20071;-68
2022/05/18 07:42:27;;;;;;;6.38;2.90;;;20.30;99.90;;;;;;5070870;28;20039;-68
2022/05/18 07:44:52;;;;;;;5.05;2.65;;;20.30;99.90;;;;;;5089045;28;20044;-69
2022/05/18 07:47:20;;;;;;;4.07;2.50;;;20.40;99.90;;;;;;5070435;28;20398;-68
2022/05/18 07:49:45;;;;;;;3.97;2.65;;;20.40;99.90;;;;;;5088480;28;20482;-68
2022/05/18 07:52:11;;;;;;;3.50;2.42;;;20.50;99.90;;;;;;5069513;28;20047;-69
2022/05/18 07:54:37;;;;;;;5.03;2.40;;;20.60;99.90;;;;;;5088908;28;20036;-69
2022/05/18 07:57:08;;;;;;;4.88;2.50;;;20.60;99.90;;;;;;5073288;28;20097;-69
2022/05/18 07:59:34;;;;;;;3.95;2.33;;;20.60;99.90;;;;;;5092743;28;20036;-68
2022/05/18 08:01:59;;;;;;;5.32;2.72;;;20.60;99.90;;;;;;5092557;28;20498;-68
2022/05/18 08:04:25;;;;;;;5.35;2.60;;;20.60;99.90;;;;;;5057479;28;20123;-68
2022/05/18 08:06:50;;;;;;;3.83;2.20;;;20.60;99.90;;;;;;5091937;28;20067;-68
2022/05/18 08:09:16;;;;;;;3.75;2.35;;;20.70;99.90;;;;;;5092012;28;20044;-68
2022/05/18 08:17:11;;;;;;;3.45;2.00;;;20.80;99.90;;;;;;5071198;28;20487;-69
2022/05/18 08:19:36;;;;;;;6.63;1.80;;;20.90;99.90;;;;;;5053952;28;20086;-68
2022/05/18 08:22:02;;;;;;;5.05;2.15;;;21.00;99.90;;;;;;5036435;28;20052;-68
2022/05/18 08:24:27;;;;;;;4.00;1.70;;;21.10;99.90;;;;;;5071422;28;20047;-68
2022/05/18 08:26:53;;;;;;;3.72;2.00;;;21.30;99.90;;;;;;5071594;28;20036;-68
2022/05/18 08:29:19;;;;;;;4.57;2.50;;;21.50;99.90;;;;;;5071711;28;20043;-68
2022/05/18 08:31:45;;;;;;;3.45;1.77;;;21.60;99.90;;;;;;5071218;28;20041;-68
2022/05/18 08:34:11;;;;;;;3.45;1.95;;;21.60;99.90;;;;;;5071318;28;20044;-69
2022/05/18 08:36:36;;;;;;;4.05;1.90;;;21.70;99.90;;;;;;5053241;28;20036;-68
2022/05/18 08:39:02;;;;;;;4.40;2.20;;;21.70;99.90;;;;;;5070785;28;20040;-68
2022/05/18 08:41:43;;;;;;;7.78;2.08;;;21.70;99.90;;;;;;5036924;28;20044;-69
2022/05/18 08:44:09;;;;;;;4.68;1.67;;;21.80;99.90;;;;;;5053161;28;20041;-68
2022/05/18 08:46:44;;;;;;;3.22;1.73;;;21.80;99.90;;;;;;5053583;28;20394;-68
2022/05/18 08:49:24;;;;;;;4.20;2.00;;;21.90;99.90;;;;;;5053085;28;20116;-69
2022/05/18 08:52:24;;;;;;;5.22;2.00;;;22.00;99.90;;;;;;5052993;28;20413;-68
2022/05/18 08:55:06;;;;;;;6.82;2.85;;;22.10;99.90;;;;;;5053506;28;20128;-69
2022/05/18 08:57:39;;;;;;;4.57;2.05;;;22.20;99.90;;;;;;5053501;28;20037;-69
2022/05/18 09:00:12;;;;;;;3.92;2.20;;;22.20;99.90;;;;;;5060215;28;20040;-69
2022/05/18 09:02:40;;;;;;;3.40;2.10;;;22.40;99.90;;;;;;5072922;28;20445;-68
2022/05/18 09:05:11;;;;;;;4.18;2.30;;;22.50;99.90;;;;;;5073364;28;20044;-68
2022/05/18 09:07:46;;;;;;;4.25;2.13;;;22.60;99.90;;;;;;5071035;28;20036;-69
2022/05/18 09:10:27;;;;;;;4.13;2.33;;;22.70;99.90;;;;;;5073318;28;20496;-69
2022/05/18 09:12:52;;;;;;;6.50;3.08;;;22.70;98.30;;;;;;5073506;28;20062;-68
2022/05/18 09:15:25;;;;;;;8.13;2.42;;;22.80;99.80;;;;;;5072617;28;20048;-69
2022/05/18 09:17:57;;;;;;;3.88;2.05;;;22.80;99.50;;;;;;5072464;28;20062;-68
2022/05/18 09:20:42;;;;;;;4.82;2.45;;;22.80;99.80;;;;;;5091206;28;20040;-68
2022/05/18 09:23:14;;;;;;;4.43;2.53;;;22.90;99.50;;;;;;5055018;28;20040;-69
2022/05/18 09:26:06;;;;;;;4.05;2.45;;;22.90;99.70;;;;;;5072659;28;20524;-68
2022/05/18 09:28:57;;;;;;;5.25;3.15;;;23.00;98.60;;;;;;5042099;28;20701;-68
2022/05/18 09:31:50;;;;;;;4.50;2.17;;;23.10;98.80;;;;;;5072862;28;20401;-68
2022/05/18 09:34:45;;;;;;;3.47;2.08;;;23.10;98.70;;;;;;5090739;28;20047;-68
2022/05/18 09:37:20;;;;;;;3.83;1.90;;;23.10;98.00;;;;;;5023858;28;20059;-68
2022/05/18 09:39:59;;;;;;;5.88;2.38;;;23.20;98.80;;;;;;5090406;28;20115;-68
2022/05/18 09:42:31;;;;;;;3.53;2.00;;;23.30;97.70;;;;;;5072072;28;20054;-68
2022/05/18 09:45:07;;;;;;;2.95;1.80;;;23.30;98.10;;;;;;5072260;28;20124;-68
2022/05/18 09:47:45;;;;;;;4.00;2.08;;;23.40;96.80;;;;;;5071955;28;20048;-68
2022/05/18 09:50:12;;;;;;;3.47;2.03;;;23.50;97.20;;;;;;5090061;28;20520;-68
2022/05/18 09:52:39;;;;;;;2.97;1.90;;;23.50;97.30;;;;;;5071383;28;20497;-68
2022/05/18 09:55:08;;;;;;;3.22;1.90;;;23.50;97.20;;;;;;5072003;28;20075;-68
2022/05/18 09:57:59;;;;;;;3.60;2.28;;;23.60;97.00;;;;;;5072060;28;20040;-68
2022/05/18 10:00:27;;;;;;;5.18;2.75;;;23.60;96.20;;;;;;5072120;28;20048;-68
2022/05/18 10:07:27;;;;;;;3.53;2.10;;;23.70;96.60;;;;;;5071876;28;20051;-68
2022/05/18 10:08:43;;;;;;;3.28;1.80;;;23.80;96.40;;;;;;5070987;28;20055;-68
2022/05/18 10:11:18;;;;;;;4.05;2.20;;;23.80;96.40;;;;;;5089929;28;20038;-68
2022/05/18 10:13:54;;;;;;;3.63;2.10;;;23.80;95.90;;;;;;5071699;28;20268;-68
2022/05/18 10:16:31;;;;;;;4.55;2.80;;;23.70;95.80;;;;;;5090430;28;20044;-68
2022/05/18 10:18:59;;;;;;;4.63;2.10;;;23.70;96.60;;;;;;5089513;28;20036;-68
2022/05/18 10:21:53;;;;;;;3.13;1.90;;;23.80;96.40;;;;;;5071935;28;20092;-68
2022/05/18 10:24:33;;;;;;;4.20;2.50;;;23.90;94.20;;;;;;5071611;28;20531;-68
2022/05/18 10:27:18;;;;;;;4.15;2.25;;;23.90;95.60;;;;;;5089808;28;20056;-68
2022/05/18 10:29:51;;;;;;;4.10;2.30;;;24.00;95.10;;;;;;5071860;28;20062;-68
2022/05/18 10:32:24;;;;;;;3.53;2.13;;;24.00;95.20;;;;;;5071316;28;20043;-68
2022/05/18 10:34:55;;;;;;;3.65;2.00;;;24.00;95.40;;;;;;5055306;28;20043;-68
2022/05/18 10:37:31;;;;;;;3.70;2.08;;;24.00;95.30;;;;;;5088904;28;20046;-68
2022/05/18 10:40:09;;;;;;;4.28;1.60;;;24.00;95.00;;;;;;5071244;28;20044;-68
2022/05/18 10:42:50;;;;;;;3.65;1.80;;;24.00;94.80;;;;;;5089544;28;20443;-68
2022/05/18 10:45:33;;;;;;;2.83;1.88;;;24.10;93.30;;;;;;5071448;28;20043;-68
2022/05/18 10:48:13;;;;;;;3.47;2.22;;;24.10;93.30;;;;;;5089082;28;20119;-68
2022/05/18 10:50:41;;;;;;;3.95;2.58;;;24.10;94.30;;;;;;5071151;28;20040;-68
2022/05/18 10:53:12;;;;;;;3.60;2.53;;;24.10;94.90;;;;;;5069834;28;20051;-68
2022/05/18 10:55:53;;;;;;;5.57;3.28;;;24.10;94.50;;;;;;5071034;28;20071;-68
2022/05/18 10:58:25;;;;;;;6.97;3.15;;;24.20;94.70;;;;;;5070959;28;20094;-68
2022/05/18 11:00:53;;;;;;;6.50;3.08;;;24.20;94.50;;;;;;5071137;28;20108;-68
2022/05/18 11:03:43;;;;;;;4.45;3.00;;;24.30;95.20;;;;;;5088865;28;20040;-68
2022/05/18 11:06:22;;;;;;;4.40;2.63;;;24.30;93.00;;;;;;5071150;28;20493;-68
2022/05/18 11:08:49;;;;;;;4.20;2.63;;;24.40;93.20;;;;;;5069589;28;20044;-68
2022/05/18 11:11:34;;;;;;;5.97;2.65;;;24.40;93.70;;;;;;5088830;28;20071;-68
2022/05/18 11:14:03;;;;;;;2.67;1.90;;;24.30;92.30;;;;;;5070616;28;20117;-68
2022/05/18 11:16:40;;;;;;;3.97;2.22;;;24.30;93.30;;;;;;5070558;28;20274;-68
2022/05/18 11:19:22;;;;;;;4.43;2.05;;;24.40;93.50;;;;;;5070337;28;20044;-68
2022/05/18 11:22:23;;;;;;;2.08;1.45;;;24.40;91.80;;;;;;5070278;28;20105;-68
2022/05/18 11:25:20;;;;;;;4.97;1.95;;;24.40;91.10;;;;;;5054337;28;20505;-68
2022/05/18 11:27:50;;;;;;;5.13;1.35;;;24.40;91.30;;;;;;5089125;28;20065;-68
2022/05/18 11:30:30;;;;;;;6.20;1.58;;;24.40;92.50;;;;;;5088136;28;20584;-68
2022/05/18 11:33:34;;;;;;;1.92;1.13;;;24.40;90.90;;;;;;5070596;28;20052;-68
2022/05/18 11:36:57;;;;;;;3.13;1.75;;;24.40;88.40;;;;;;5070945;28;20076;-68
2022/05/18 11:40:01;;;;;;;2.70;1.65;;;24.40;88.50;;;;;;4989208;28;20439;-68
2022/05/18 11:42:35;;;;;;;2.15;1.45;;;24.50;87.00;;;;;;4989846;28;20050;-68
2022/05/18 11:45:09;;;;;;;3.78;2.10;;;24.40;90.50;;;;;;5048635;28;20043;-68
2022/05/18 11:47:45;;;;;;;3.33;2.15;;;24.40;91.30;;;;;;5088314;28;20036;-68
2022/05/18 11:50:20;;;;;;;3.50;1.65;;;24.40;90.60;;;;;;5088484;28;20111;-68
2022/05/18 11:53:13;;;;;;;5.47;2.85;;;24.50;91.30;;;;;;5087806;28;20052;-68
2022/05/18 11:55:50;;;;;;;4.28;2.50;;;24.60;90.20;;;;;;5070441;28;20044;-68
2022/05/18 11:59:02;;;;;;;5.65;2.25;;;24.70;90.10;;;;;;5070232;28;20524;-68
2022/05/18 12:01:48;;;;;;;3.90;2.25;;;24.70;89.80;;;;;;5070174;28;20072;-68
2022/05/18 12:04:22;;;;;;;4.90;2.70;;;24.80;90.20;;;;;;5053497;28;20109;-68
2022/05/18 12:07:14;;;;;;;4.18;2.50;;;24.90;90.20;;;;;;5087797;28;20052;-68
2022/05/18 12:10:05;;;;;;;6.55;3.40;;;25.00;88.80;;;;;;5070274;28;20402;-68
2022/05/18 12:12:57;;;;;;;5.18;2.67;;;25.10;88.30;;;;;;5088037;28;20278;-68
2022/05/18 12:15:41;;;;;;;5.28;2.92;;;25.10;90.30;;;;;;5088237;28;20051;-68
2022/05/18 12:18:28;;;;;;;4.85;2.58;;;25.10;89.70;;;;;;5052955;28;20127;-68
2022/05/18 12:21:13;;;;;;;3.08;2.13;;;25.10;89.00;;;;;;5087852;28;20411;-68
2022/05/18 12:23:45;;;;;;;3.63;2.03;;;25.00;90.20;;;;;;5087111;28;20551;-68
2022/05/18 12:26:13;;;;;;;4.57;1.63;;;25.00;90.30;;;;;;5088094;28;20509;-68
2022/05/18 12:28:38;;;;;;;2.63;1.40;;;24.90;90.60;;;;;;5088199;28;20047;-68
2022/05/18 12:31:05;;;;;;;1.88;1.05;;;24.90;90.60;;;;;;5087602;28;20032;-68
2022/05/18 12:33:34;;;;;;;3.75;1.08;;;24.80;90.50;;;;;;5087834;28;20044;-68
2022/05/18 12:36:04;;;;;;;2.15;1.20;;;24.80;90.40;;;;;;5069682;28;20169;-68
2022/05/18 12:38:38;;;;;;;2.88;1.40;;;24.60;90.60;;;;;;5068597;28;20048;-68
2022/05/18 12:41:12;;;;;;;3.03;1.17;;;24.60;90.90;;;;;;5069663;28;20090;-68
2022/05/18 12:43:44;;;;;;;3.15;1.10;;;24.50;91.20;;;;;;5091427;28;20040;-68
2022/05/18 12:46:15;;;;;;;1.58;0.85;;;24.40;91.60;;;;;;5091766;28;20385;-68
2022/05/18 12:48:47;;;;;;;2.22;1.08;;;24.40;91.90;;;;;;5073405;28;20047;-68
2022/05/18 12:51:35;;;;;;;4.45;1.00;;;24.30;92.40;;;;;;5091569;28;20040;-68
2022/05/18 12:54:10;;;;;;;1.88;0.95;;;24.30;90.60;;;;;;5090831;28;20051;-68
2022/05/18 12:56:35;;;;;;;3.80;1.60;;;24.20;92.20;;;;;;5073716;28;20040;-68
2022/05/18 12:59:08;;;;;;;2.05;1.10;;;24.10;92.70;;;;;;5091591;28;20071;-68
2022/05/18 13:01:40;;;;;;;2.33;1.33;;;24.10;92.90;;;;;;5091167;28;20189;-68
2022/05/18 13:04:09;;;;;;;1.77;1.17;;;24.10;93.20;;;;;;5072969;28;20485;-68
2022/05/18 13:06:56;;;;;;;3.97;1.38;;;24.20;93.40;;;;;;5056164;28;20425;-68
2022/05/18 13:09:25;;;;;;;2.67;1.50;;;24.30;93.70;;;;;;5073234;28;20401;-69
2022/05/18 13:11:57;;;;;;;3.60;1.95;;;24.40;93.20;;;;;;5073667;28;20044;-68
2022/05/18 13:14:36;;;;;;;3.33;2.30;;;24.40;92.90;;;;;;5091432;28;20505;-68
2022/05/18 13:17:13;;;;;;;2.88;1.75;;;24.50;92.60;;;;;;5072852;28;20074;-68